Time;durP1;ratioP1;P1;durP2;ratioP2;P2;SDS_P1;SDS_P2;PMS_P1;PMS_P2;Temp;Humidity;BMP_temperature;BMP_pressure;BME280_temperature;BME280_humidity;BME280_pressure;Samples;Min_cycle;Max_cycle;Signal;HPM_P1;HPM_P2
2023/03/12 00:01:44;;;;;;;5.93;3.47;;;;;;;1.53;78.68;101080.13;5073615;28;20099;-82
2023/03/12 00:04:09;;;;;;;3.90;2.85;;;;;;;1.53;78.87;101080.13;5072935;28;20020;-82
2023/03/12 00:06:35;;;;;;;6.47;2.90;;;;;;;1.51;79.38;101074.09;5073170;28;20039;-82
2023/03/12 00:09:01;;;;;;;3.28;2.65;;;;;;;1.49;78.80;101068.97;5073006;28;20115;-85
2023/03/12 00:11:29;;;;;;;4.75;2.80;;;;;;;1.47;78.82;101068.03;5072979;28;20450;-83
2023/03/12 00:13:56;;;;;;;3.50;2.63;;;;;;;1.50;78.73;101068.13;5072900;28;20370;-83
2023/03/12 00:16:22;;;;;;;;;;;;;;;1.52;78.75;101068.16;5073625;28;20025;-82
2023/03/12 00:18:50;;;;;;;4.85;2.70;;;;;;;1.52;78.88;101063.03;5072606;28;19934;-82
2023/03/12 00:21:15;;;;;;;5.05;2.95;;;;;;;1.51;78.66;101061.31;5073474;28;20037;-83
2023/03/12 00:23:40;;;;;;;4.43;2.67;;;;;;;1.49;78.97;101062.97;5073507;28;20051;-83
2023/03/12 00:26:09;;;;;;;3.85;2.38;;;;;;;1.52;79.02;101063.03;5072268;28;20496;-82
2023/03/12 00:28:35;;;;;;;4.43;2.60;;;;;;;1.52;79.16;101046.00;5073126;28;20024;-83
2023/03/12 00:31:08;;;;;;;4.07;2.60;;;;;;;1.50;79.39;101044.22;5072990;28;20099;-83
2023/03/12 00:33:34;;;;;;;4.63;2.63;;;;;;;1.47;78.85;101037.34;5072550;28;20042;-83
2023/03/12 00:35:59;;;;;;;5.00;2.80;;;;;;;1.49;79.13;101039.94;5072905;28;20024;-83
2023/03/12 00:38:24;;;;;;;4.05;2.85;;;;;;;1.46;78.98;101025.38;5073093;28;20032;-83
2023/03/12 00:40:50;;;;;;;3.35;2.60;;;;;;;1.48;79.28;101038.19;5071865;28;20391;-82
2023/03/12 00:43:15;;;;;;;4.88;2.90;;;;;;;1.49;79.26;101033.16;5072717;28;20105;-83
2023/03/12 00:45:40;;;;;;;5.20;3.20;;;;;;;1.52;79.20;101030.63;5072089;28;20492;-82
2023/03/12 00:48:06;;;;;;;4.47;2.95;;;;;;;1.54;79.45;101023.03;5072417;28;20060;-83
2023/03/12 00:50:34;;;;;;;5.05;2.97;;;;;;;1.55;79.24;101022.19;5072422;28;20469;-83
2023/03/12 00:52:59;;;;;;;6.15;3.30;;;;;;;1.52;79.16;101025.53;5071051;28;20105;-82
2023/03/12 00:55:25;;;;;;;5.43;2.90;;;;;;;1.49;79.32;101016.91;5070417;28;20016;-83
2023/03/12 00:57:50;;;;;;;3.75;2.90;;;;;;;1.52;79.55;101020.41;5067792;28;20103;-82
2023/03/12 01:00:16;;;;;;;4.93;2.70;;;;;;;1.50;79.54;101008.41;5072072;28;20046;-82
2023/03/12 01:02:41;;;;;;;7.03;3.13;;;;;;;1.52;78.78;101007.63;5072951;28;20032;-83
2023/03/12 01:05:07;;;;;;;6.45;3.78;;;;;;;1.58;78.69;101012.03;5072201;28;20029;-83
2023/03/12 01:07:34;;;;;;;5.13;3.33;;;;;;;1.53;79.23;101017.03;5071996;28;20046;-83
2023/03/12 01:09:59;;;;;;;5.75;3.55;;;;;;;1.57;79.01;101010.31;5072593;28;20032;-83
2023/03/12 01:12:25;;;;;;;5.25;3.40;;;;;;;1.56;79.23;101000.91;5072197;28;20039;-83
2023/03/12 01:14:50;;;;;;;6.50;3.58;;;;;;;1.56;79.04;100998.34;5071651;28;20074;-82
2023/03/12 01:17:15;;;;;;;5.63;3.35;;;;;;;1.56;78.73;100993.22;5071746;28;20071;-82
2023/03/12 01:19:40;;;;;;;9.80;3.92;;;;;;;1.52;79.41;100992.28;5072471;28;20082;-83
2023/03/12 01:22:09;;;;;;;6.78;3.50;;;;;;;1.54;78.63;100987.22;5071547;28;20032;-82
2023/03/12 01:24:34;;;;;;;7.53;3.50;;;;;;;1.52;78.97;100989.72;5072729;28;20032;-82
2023/03/12 01:26:59;;;;;;;6.18;3.40;;;;;;;1.54;79.23;100990.63;5072523;28;20021;-83
2023/03/12 01:29:28;;;;;;;5.97;3.20;;;;;;;1.54;79.36;100998.28;5075892;28;20097;-83
2023/03/12 01:31:53;;;;;;;5.85;3.10;;;;;;;1.54;79.61;101000.00;5076480;28;20089;-83
2023/03/12 01:34:18;;;;;;;3.70;2.67;;;;;;;1.56;79.12;101003.47;5076378;28;20111;-83
2023/03/12 01:36:45;;;;;;;4.55;2.75;;;;;;;1.56;79.11;100995.78;5075621;28;20036;-83
2023/03/12 01:39:10;;;;;;;5.30;2.83;;;;;;;1.61;79.05;100993.34;5076282;28;20389;-82
2023/03/12 01:41:36;;;;;;;4.30;2.90;;;;;;;1.61;79.05;100983.09;5076426;28;20021;-83
2023/03/12 01:44:03;;;;;;;6.47;3.30;;;;;;;1.64;78.50;100986.59;5075240;28;21032;-83
2023/03/12 01:46:31;;;;;;;7.10;3.63;;;;;;;1.61;78.47;100991.63;5076578;28;20025;-82
2023/03/12 01:49:02;;;;;;;8.75;3.60;;;;;;;1.61;78.75;100988.22;5075387;28;20115;-82
2023/03/12 01:51:34;;;;;;;6.00;3.30;;;;;;;1.62;78.49;100965.22;5076457;28;20047;-83
2023/03/12 01:54:04;;;;;;;5.78;3.25;;;;;;;1.64;78.69;100962.69;5075987;28;20104;-83
2023/03/12 01:56:33;;;;;;;6.53;3.20;;;;;;;1.63;79.12;100955.88;5075219;28;20412;-82
2023/03/12 01:59:05;;;;;;;6.88;3.92;;;;;;;1.66;77.69;100961.91;5076005;28;20028;-83
2023/03/12 02:01:30;;;;;;;7.88;3.88;;;;;;;1.65;78.29;100961.88;5076223;28;20031;-83
2023/03/12 02:03:58;;;;;;;8.52;4.00;;;;;;;1.62;78.44;100957.56;5075057;28;20388;-82
2023/03/12 02:06:39;;;;;;;6.18;3.60;;;;;;;1.63;78.64;100955.88;5075866;28;20403;-82
2023/03/12 02:09:06;;;;;;;7.28;3.95;;;;;;;1.68;77.96;100961.94;5075379;28;20048;-83
2023/03/12 02:11:31;;;;;;;8.48;3.80;;;;;;;1.70;78.11;100952.63;5074839;28;20036;-83
2023/03/12 02:13:57;;;;;;;6.97;4.03;;;;;;;1.64;78.63;100953.34;5075263;28;20029;-82
2023/03/12 02:16:22;;;;;;;8.52;3.80;;;;;;;1.69;78.34;100949.16;5075956;28;20384;-83
2023/03/12 02:18:50;;;;;;;7.55;3.92;;;;;;;1.64;78.31;100935.44;5074626;28;20058;-82
2023/03/12 02:21:24;;;;;;;7.07;3.58;;;;;;;1.63;78.34;100932.84;5075417;28;20024;-83
2023/03/12 02:23:59;;;;;;;7.03;3.80;;;;;;;1.65;78.62;100934.59;5075525;28;20035;-82
2023/03/12 02:26:27;;;;;;;7.53;3.63;;;;;;;1.66;78.55;100930.34;5054932;28;20031;-83
2023/03/12 02:28:54;;;;;;;6.53;3.25;;;;;;;1.64;78.90;100926.88;5055245;28;20396;-83
2023/03/12 02:31:24;;;;;;;5.85;3.30;;;;;;;1.66;78.70;100923.53;5054677;28;20027;-83
2023/03/12 02:33:51;;;;;;;5.47;3.22;;;;;;;1.66;78.82;100920.09;5055123;28;20028;-83
2023/03/12 02:36:17;;;;;;;7.22;3.60;;;;;;;1.66;78.51;100918.44;5060201;28;20479;-82
2023/03/12 02:38:47;;;;;;;7.25;3.50;;;;;;;1.62;78.88;100916.63;5074605;28;20024;-83
2023/03/12 02:41:25;;;;;;;6.80;3.53;;;;;;;1.64;78.98;100916.63;5075580;28;20107;-83
2023/03/12 02:44:01;;;;;;;7.70;3.42;;;;;;;1.64;78.88;100925.19;5074653;28;20036;-83
2023/03/12 02:46:31;;;;;;;8.52;3.90;;;;;;;1.64;78.77;100927.75;5074650;28;20036;-83
2023/03/12 02:48:56;;;;;;;6.55;3.70;;;;;;;1.63;78.99;100922.63;5074192;28;20047;-83
2023/03/12 02:51:22;;;;;;;6.45;3.55;;;;;;;1.64;79.01;100924.31;5075355;28;20028;-83
2023/03/12 02:53:53;;;;;;;6.45;3.50;;;;;;;1.64;79.44;100930.31;5073613;28;20103;-82
2023/03/12 02:56:19;;;;;;;5.82;3.30;;;;;;;1.64;79.40;100917.53;5067597;28;20110;-82
2023/03/12 02:58:44;;;;;;;5.60;3.28;;;;;;;1.67;79.06;100926.94;5074905;28;20029;-83
2023/03/12 03:01:09;;;;;;;6.70;3.58;;;;;;;1.68;79.15;100908.22;5074304;28;20376;-83
2023/03/12 03:03:34;;;;;;;6.82;3.60;;;;;;;1.66;79.09;100899.63;5075099;28;20021;-83
2023/03/12 03:06:03;;;;;;;7.32;3.67;;;;;;;1.72;79.27;100901.47;5074521;28;20116;-82
2023/03/12 03:08:28;;;;;;;6.70;3.70;;;;;;;1.72;79.78;100902.34;5074060;28;20024;-83
2023/03/12 03:10:54;;;;;;;7.80;3.70;;;;;;;1.74;79.02;100900.69;5074230;28;20393;-82
2023/03/12 03:13:19;;;;;;;8.95;3.90;;;;;;;1.74;79.51;100903.25;5074530;28;20111;-82
2023/03/12 03:15:44;;;;;;;6.95;3.67;;;;;;;1.71;79.95;100905.72;5074021;28;20067;-83
2023/03/12 03:18:09;;;;;;;6.40;3.50;;;;;;;1.74;80.01;100916.03;5074809;28;20078;-83
2023/03/12 03:20:35;;;;;;;6.38;3.50;;;;;;;1.76;79.82;100908.38;5073918;28;20021;-82
2023/03/12 03:23:00;;;;;;;9.13;4.22;;;;;;;1.74;79.77;100905.81;5074356;28;20512;-83
2023/03/12 03:25:25;;;;;;;7.57;3.90;;;;;;;1.75;79.99;100907.50;5074634;28;20027;-83
2023/03/12 03:27:51;;;;;;;7.00;4.07;;;;;;;1.74;81.19;100910.94;5073285;28;20024;-83
2023/03/12 03:30:17;;;;;;;10.25;4.35;;;;;;;1.76;80.53;100911.78;5074460;28;20396;-83
2023/03/12 03:32:42;;;;;;;7.40;4.10;;;;;;;1.77;80.47;100912.69;5074600;28;20385;-83
2023/03/12 03:35:08;;;;;;;8.35;4.18;;;;;;;1.77;80.66;100913.53;5073215;28;20032;-83
2023/03/12 03:37:33;;;;;;;10.05;4.40;;;;;;;1.86;80.13;100912.88;5074552;28;20032;-83
2023/03/12 03:39:59;;;;;;;8.68;4.03;;;;;;;1.84;81.30;100906.84;5073852;28;20015;-82
2023/03/12 03:42:24;;;;;;;9.40;4.22;;;;;;;1.81;81.21;100899.09;5073311;28;20033;-83
2023/03/12 03:44:49;;;;;;;11.40;4.53;;;;;;;1.89;81.63;100891.59;5073667;28;20029;-82
2023/03/12 03:47:15;;;;;;;11.07;4.45;;;;;;;1.87;81.21;100893.25;5074243;28;20020;-83
2023/03/12 03:49:40;;;;;;;9.07;3.97;;;;;;;1.86;82.00;100884.72;5073297;28;20451;-83
2023/03/12 03:52:06;;;;;;;9.27;4.07;;;;;;;1.86;81.46;100871.94;5073655;28;20104;-83
2023/03/12 03:54:32;;;;;;;10.23;4.07;;;;;;;1.87;83.26;100860.84;5074237;28;20031;-83
2023/03/12 03:56:58;;;;;;;7.82;3.90;;;;;;;1.86;82.30;100871.94;5051489;28;20041;-82
2023/03/12 03:59:23;;;;;;;7.50;3.75;;;;;;;1.90;82.45;100850.69;5073540;28;20426;-83
2023/03/12 04:01:48;;;;;;;9.40;4.40;;;;;;;1.81;83.24;100845.34;5073379;28;20067;-83
2023/03/12 04:04:13;;;;;;;8.80;3.90;;;;;;;1.84;83.45;100863.34;5073146;28;20067;-83
2023/03/12 04:06:39;;;;;;;7.82;3.63;;;;;;;1.83;83.60;100853.94;5073840;28;20028;-83
2023/03/12 04:09:05;;;;;;;6.75;3.78;;;;;;;1.85;82.61;100857.41;5072906;28;20035;-83
2023/03/12 04:11:30;;;;;;;10.63;4.00;;;;;;;1.94;82.27;100849.91;5072592;28;20021;-83
2023/03/12 04:13:56;;;;;;;8.88;4.20;;;;;;;1.87;82.96;100837.81;5072870;28;20069;-82
2023/03/12 04:16:22;;;;;;;7.32;3.85;;;;;;;1.87;83.19;100842.94;5073642;28;20421;-83
2023/03/12 04:18:47;;;;;;;7.38;3.97;;;;;;;1.90;82.68;100830.22;5072518;28;20093;-82
2023/03/12 04:21:13;;;;;;;7.68;3.97;;;;;;;1.87;83.06;100826.69;5073010;28;20072;-83
2023/03/12 04:23:38;;;;;;;8.15;4.07;;;;;;;1.90;82.62;100827.66;5073415;28;20111;-82
2023/03/12 04:26:04;;;;;;;8.40;3.97;;;;;;;1.88;82.83;100819.06;5072259;28;20506;-82
2023/03/12 04:28:30;;;;;;;7.88;4.00;;;;;;;1.88;82.89;100813.97;5072999;28;20027;-83
2023/03/12 04:31:00;;;;;;;7.65;4.50;;;;;;;1.89;83.23;100797.78;5071868;28;20024;-82
2023/03/12 04:33:31;;;;;;;9.93;4.78;;;;;;;1.85;83.66;100806.22;5073120;28;20024;-83
2023/03/12 04:35:58;;;;;;;9.23;4.55;;;;;;;1.83;84.14;100797.63;5072918;28;20017;-83
2023/03/12 04:38:25;;;;;;;9.27;4.47;;;;;;;1.82;83.65;100799.34;5072463;28;20453;-83
2023/03/12 04:41:00;;;;;;;;;;;;;;;1.80;84.03;100793.31;5073090;28;20484;-83
2023/03/12 04:43:26;;;;;;;7.53;3.90;;;;;;;1.77;84.21;100788.13;5073269;28;20394;-83
2023/03/12 04:45:52;;;;;;;9.70;4.32;;;;;;;1.84;83.61;100792.56;5072039;28;20472;-83
2023/03/12 04:48:17;;;;;;;9.80;4.45;;;;;;;1.86;83.14;100797.69;5072791;28;20061;-83
2023/03/12 04:50:43;;;;;;;8.80;4.20;;;;;;;1.87;83.29;100801.09;5072989;28;20029;-83
2023/03/12 04:53:09;;;;;;;10.65;4.32;;;;;;;1.82;83.47;100794.22;5071783;28;20035;-83
2023/03/12 04:55:34;;;;;;;7.78;4.00;;;;;;;1.90;83.38;100784.16;5075976;28;20052;-83
2023/03/12 04:57:59;;;;;;;10.27;4.50;;;;;;;1.86;83.36;100787.47;5092996;28;20031;-83
2023/03/12 05:00:25;;;;;;;10.32;4.80;;;;;;;1.93;83.29;100775.66;5092991;28;20027;-83
2023/03/12 05:02:51;;;;;;;8.60;4.13;;;;;;;1.88;84.67;100772.13;5092001;28;20028;-83
2023/03/12 05:05:17;;;;;;;8.17;4.00;;;;;;;1.88;84.52;100769.56;5092845;28;20035;-83
2023/03/12 05:07:42;;;;;;;7.45;3.97;;;;;;;1.86;84.35;100769.56;5092025;28;20028;-83
2023/03/12 05:10:08;;;;;;;7.20;3.78;;;;;;;1.89;83.88;100759.38;5092547;28;20388;-83
2023/03/12 05:12:39;;;;;;;9.70;4.60;;;;;;;1.91;84.18;100760.28;5093106;28;20028;-83
2023/03/12 05:15:05;;;;;;;11.60;5.13;;;;;;;2.04;83.59;100751.13;5091974;28;20028;-83
2023/03/12 05:17:30;;;;;;;9.30;4.40;;;;;;;1.90;85.29;100742.31;5092761;28;20115;-82
2023/03/12 05:19:56;;;;;;;10.43;4.53;;;;;;;1.94;84.48;100742.41;5092278;28;20411;-82
2023/03/12 05:22:21;;;;;;;9.20;4.35;;;;;;;1.91;84.60;100742.38;5092387;28;20024;-83
2023/03/12 05:24:46;;;;;;;8.27;4.05;;;;;;;1.94;85.92;100750.06;5092335;28;20024;-82
2023/03/12 05:27:12;;;;;;;8.98;4.50;;;;;;;1.96;85.05;100742.44;5092248;28;20028;-82
2023/03/12 05:29:37;;;;;;;9.07;4.00;;;;;;;1.95;84.87;100744.13;5092547;28;20115;-82
2023/03/12 05:32:03;;;;;;;9.80;4.43;;;;;;;2.03;85.14;100741.72;5092314;28;20044;-83
2023/03/12 05:34:29;;;;;;;10.93;4.35;;;;;;;2.06;85.63;100738.34;5092272;28;20111;-83
2023/03/12 05:36:56;;;;;;;11.23;4.35;;;;;;;2.03;87.23;100739.16;5092388;28;20024;-83
2023/03/12 05:39:21;;;;;;;8.43;4.30;;;;;;;1.99;87.07;100738.25;5092559;28;20028;-83
2023/03/12 05:41:47;;;;;;;11.38;4.30;;;;;;;1.97;87.44;100732.22;5091812;28;20028;-82
2023/03/12 05:44:14;;;;;;;8.02;4.00;;;;;;;1.99;88.03;100745.03;5092727;28;20023;-83
2023/03/12 05:46:40;;;;;;;10.63;4.10;;;;;;;1.98;87.19;100736.50;5092592;28;20107;-83
2023/03/12 05:49:06;;;;;;;8.10;4.20;;;;;;;2.04;87.41;100747.69;5091588;28;20082;-83
2023/03/12 05:51:32;;;;;;;8.50;4.13;;;;;;;2.01;87.28;100733.13;5092398;28;20023;-83
2023/03/12 05:53:58;;;;;;;8.00;4.03;;;;;;;1.97;88.87;100737.34;5092229;28;20111;-83
2023/03/12 05:56:24;;;;;;;5.77;3.50;;;;;;;1.94;89.22;100729.59;5091544;28;20109;-83
2023/03/12 05:58:49;;;;;;;8.68;3.88;;;;;;;2.05;89.03;100728.94;5092025;28;20020;-83
2023/03/12 06:01:20;;;;;;;6.28;3.50;;;;;;;1.96;89.09;100730.50;5092717;28;20020;-83
2023/03/12 06:03:46;;;;;;;10.02;4.28;;;;;;;2.00;88.94;100727.16;5091448;28;20031;-83
2023/03/12 06:06:12;;;;;;;6.93;3.55;;;;;;;2.02;88.87;100732.31;5092281;28;20032;-83
2023/03/12 06:08:38;;;;;;;8.57;3.90;;;;;;;2.01;89.69;100735.69;5092312;28;20096;-83
2023/03/12 06:11:06;;;;;;;6.38;3.50;;;;;;;2.05;88.99;100728.94;5091411;28;20028;-83
2023/03/12 06:13:31;;;;;;;7.70;4.03;;;;;;;2.10;89.24;100745.25;5092934;28;20388;-83
2023/03/12 06:16:17;;;;;;;8.45;4.15;;;;;;;2.09;89.59;100743.53;5095682;28;20027;-83
2023/03/12 06:18:43;;;;;;;8.65;4.18;;;;;;;2.03;93.37;100745.97;5096035;28;20464;-83
2023/03/12 06:21:15;;;;;;;6.63;3.67;;;;;;;2.04;91.92;100742.56;5095509;28;20024;-83
2023/03/12 06:23:41;;;;;;;7.50;3.83;;;;;;;2.04;91.13;100748.56;5095220;28;20480;-83
2023/03/12 06:26:08;;;;;;;8.90;3.70;;;;;;;2.06;91.09;100751.13;5095394;28;20028;-83
2023/03/12 06:28:34;;;;;;;7.65;3.60;;;;;;;2.10;91.48;100752.94;5095666;28;20067;-83
2023/03/12 06:30:59;;;;;;;7.85;3.95;;;;;;;2.10;92.28;100747.81;5094884;28;20530;-83
2023/03/12 06:33:25;;;;;;;10.55;4.00;;;;;;;2.15;91.64;100734.25;5095648;28;20020;-83
2023/03/12 06:35:58;;;;;;;6.53;3.97;;;;;;;2.16;91.74;100735.09;5095412;28;20039;-83
2023/03/12 06:38:23;;;;;;;6.22;3.92;;;;;;;2.14;91.98;100727.41;5094743;28;20464;-83
2023/03/12 06:41:00;;;;;;;6.70;3.80;;;;;;;2.16;91.69;100724.84;5095477;28;20020;-83
2023/03/12 06:43:27;;;;;;;;;;;;;;;2.21;92.76;100723.25;5096127;28;20024;-83
2023/03/12 06:45:57;;;;;;;9.30;3.80;;;;;;;2.16;92.32;100722.28;5094475;28;19908;-83
2023/03/12 06:48:24;;;;;;;9.30;4.25;;;;;;;2.25;93.82;100717.31;5095571;28;20494;-84
2023/03/12 06:50:49;;;;;;;;;;;;;;;2.26;93.45;100705.41;5095545;28;20032;-83
2023/03/12 06:53:18;;;;;;;9.30;4.63;;;;;;;2.19;94.16;100707.00;5094899;28;19912;-83
2023/03/12 06:55:44;;;;;;;8.98;4.03;;;;;;;2.20;94.05;100695.03;5095269;28;20044;-83
2023/03/12 06:58:10;;;;;;;9.25;4.18;;;;;;;2.19;94.92;100691.63;5095034;28;20024;-84
2023/03/12 07:00:35;;;;;;;8.55;4.18;;;;;;;2.23;94.67;100690.84;5094830;28;20028;-75
2023/03/12 07:03:01;;;;;;;9.57;4.40;;;;;;;2.24;95.87;100692.59;5094468;28;20024;-82
2023/03/12 07:05:27;;;;;;;11.02;4.60;;;;;;;2.26;94.73;100685.75;5094603;28;20028;-81
2023/03/12 07:07:52;;;;;;;9.30;4.40;;;;;;;2.28;94.61;100686.66;5094769;28;20099;-83
2023/03/12 07:10:18;;;;;;;9.60;4.65;;;;;;;2.31;94.72;100684.16;5095283;28;20028;-81
2023/03/12 07:12:44;;;;;;;10.38;4.63;;;;;;;2.32;96.18;100685.00;5094748;28;20436;-81
2023/03/12 07:15:10;;;;;;;13.32;5.47;;;;;;;2.36;95.91;100680.81;5095138;28;20034;-81
2023/03/12 07:17:35;;;;;;;11.07;5.50;;;;;;;2.41;96.54;100689.41;5094427;28;20115;-81
2023/03/12 07:20:01;;;;;;;10.88;5.30;;;;;;;2.35;96.93;100684.22;5093734;28;20020;-81
2023/03/12 07:22:27;;;;;;;10.27;5.28;;;;;;;2.34;96.94;100683.34;5095120;28;20032;-81
2023/03/12 07:24:52;;;;;;;12.45;5.80;;;;;;;2.39;98.13;100686.84;5093918;28;20376;-81
2023/03/12 07:27:17;;;;;;;9.80;5.03;;;;;;;2.36;98.39;100694.47;5093721;28;20078;-81
2023/03/12 07:29:43;;;;;;;9.75;4.90;;;;;;;2.36;98.03;100698.75;5094202;28;20054;-82
2023/03/12 07:32:08;;;;;;;9.05;5.03;;;;;;;2.39;97.75;100680.84;5094434;28;20024;-83
2023/03/12 07:34:33;;;;;;;9.23;4.95;;;;;;;2.41;98.08;100697.09;5093547;28;20022;-82
2023/03/12 07:36:59;;;;;;;10.50;5.35;;;;;;;2.42;99.75;100699.66;5093921;28;20085;-82
2023/03/12 07:39:24;;;;;;;11.90;5.30;;;;;;;2.44;98.24;100697.16;5094484;28;20527;-82
2023/03/12 07:41:50;;;;;;;10.85;4.97;;;;;;;2.42;98.35;100698.81;5093463;28;20058;-82
2023/03/12 07:44:15;;;;;;;8.52;4.30;;;;;;;2.42;98.62;100701.38;5094080;28;20114;-82
2023/03/12 07:46:40;;;;;;;9.48;4.57;;;;;;;2.47;98.13;100694.66;5093924;28;20119;-82
2023/03/12 07:49:06;;;;;;;9.32;4.75;;;;;;;2.49;98.55;100695.50;5092011;28;20130;-80
2023/03/12 07:51:31;;;;;;;9.85;4.90;;;;;;;2.52;98.56;100702.41;5094146;28;20024;-81
2023/03/12 07:53:56;;;;;;;9.75;5.03;;;;;;;2.54;99.22;100700.72;5093679;28;20024;-81
2023/03/12 07:56:22;;;;;;;9.07;4.75;;;;;;;2.54;99.12;100699.03;5093149;28;20499;-81
2023/03/12 07:58:47;;;;;;;8.15;4.13;;;;;;;2.55;99.40;100694.75;5093594;28;20061;-81
2023/03/12 08:01:13;;;;;;;8.40;4.60;;;;;;;2.62;99.94;100694.03;5094033;28;20027;-81
2023/03/12 08:03:38;;;;;;;8.90;4.80;;;;;;;2.60;99.10;100706.78;5093223;28;20054;-81
2023/03/12 08:06:04;;;;;;;7.18;4.55;;;;;;;2.62;99.68;100694.03;5093947;28;20237;-81
2023/03/12 08:08:30;;;;;;;8.43;4.57;;;;;;;2.69;100.00;100698.38;5093852;28;20027;-81
2023/03/12 08:10:56;;;;;;;11.07;5.18;;;;;;;2.70;100.00;100700.13;5093153;28;20024;-81
2023/03/12 08:13:23;;;;;;;9.43;5.00;;;;;;;2.76;100.00;100696.78;5093826;28;20384;-81
2023/03/12 08:15:50;;;;;;;8.85;5.40;;;;;;;2.79;100.00;100696.84;5093238;28;20024;-81
2023/03/12 08:18:16;;;;;;;8.60;4.90;;;;;;;2.81;100.00;100676.34;5093774;28;20080;-81
2023/03/12 08:20:41;;;;;;;8.00;4.75;;;;;;;2.85;100.00;100688.38;5093807;28;20020;-81
2023/03/12 08:23:06;;;;;;;7.13;4.60;;;;;;;2.92;100.00;100690.16;5091917;28;20803;-82
2023/03/12 08:25:32;;;;;;;7.97;4.97;;;;;;;2.98;100.00;100694.50;5093430;28;20027;-82
2023/03/12 08:27:57;;;;;;;9.30;4.85;;;;;;;3.00;100.00;100693.69;5092905;28;20024;-83
2023/03/12 08:30:22;;;;;;;9.60;4.68;;;;;;;3.05;100.00;100696.31;5092512;28;20407;-83
2023/03/12 08:32:47;;;;;;;8.27;4.70;;;;;;;3.11;100.00;100703.22;5093028;28;20035;-86
2023/03/12 08:35:15;;;;;;;8.48;4.30;;;;;;;3.13;100.00;100704.09;5093783;28;20099;-84
2023/03/12 08:37:40;;;;;;;7.53;4.30;;;;;;;3.17;100.00;100698.19;5092729;28;20024;-85
2023/03/12 08:40:15;;;;;;;6.38;4.00;;;;;;;3.20;100.00;100709.34;5093142;28;20539;-84
2023/03/12 08:42:43;;;;;;;7.80;4.15;;;;;;;3.28;100.00;100703.44;5093387;28;20533;-84
2023/03/12 08:45:10;;;;;;;7.43;4.00;;;;;;;3.32;100.00;100711.19;5092484;28;20038;-84
2023/03/12 08:47:38;;;;;;;6.32;3.42;;;;;;;3.34;100.00;100706.09;5093341;28;20460;-83
2023/03/12 08:50:04;;;;;;;6.30;3.85;;;;;;;3.39;100.00;100704.44;5092929;28;20032;-83
2023/03/12 08:52:32;;;;;;;5.05;3.28;;;;;;;3.47;100.00;100733.63;5092090;28;20055;-82
2023/03/12 08:54:57;;;;;;;5.70;3.53;;;;;;;3.52;100.00;100718.28;5092814;28;20047;-82
2023/03/12 08:57:22;;;;;;;6.22;3.65;;;;;;;3.58;100.00;100728.59;5092907;28;20036;-83
2023/03/12 08:59:51;;;;;;;6.75;3.63;;;;;;;3.63;100.00;100728.66;5091959;28;20484;-82
2023/03/12 09:02:16;;;;;;;7.55;4.00;;;;;;;3.68;100.00;100722.72;5093011;28;20028;-82
2023/03/12 09:04:41;;;;;;;7.10;3.88;;;;;;;3.76;100.00;100727.09;5092819;28;20012;-82
2023/03/12 09:07:08;;;;;;;9.43;4.65;;;;;;;3.84;100.00;100731.44;5091280;28;20389;-82
2023/03/12 09:09:33;;;;;;;;;;;;;;;3.88;100.00;100726.38;5093010;28;20123;-83
2023/03/12 09:11:59;;;;;;;10.93;5.57;;;;;;;3.93;100.00;100724.72;5092390;28;19955;-82
2023/03/12 09:14:24;;;;;;;11.57;5.50;;;;;;;3.94;100.00;100723.88;5092369;28;20024;-82
2023/03/12 09:16:49;;;;;;;13.85;6.28;;;;;;;4.10;100.00;100728.28;5092841;28;20028;-83
2023/03/12 09:19:15;;;;;;;15.82;7.20;;;;;;;4.21;100.00;100722.41;5092237;28;20055;-82
2023/03/12 09:21:40;;;;;;;16.02;7.22;;;;;;;4.28;100.00;100724.16;5092681;28;20039;-82
2023/03/12 09:24:06;;;;;;;17.30;7.57;;;;;;;4.40;100.00;100724.25;5087587;28;20024;-84
2023/03/12 09:26:32;;;;;;;18.33;8.77;;;;;;;4.54;100.00;100718.38;5090356;28;20407;-85
2023/03/12 09:28:58;;;;;;;16.90;7.43;;;;;;;4.61;100.00;100718.44;5092136;28;20157;-84
2023/03/12 09:31:23;;;;;;;16.50;7.50;;;;;;;4.71;100.00;100723.66;5092609;28;20032;-84
2023/03/12 09:33:49;;;;;;;16.45;7.78;;;;;;;4.91;100.00;100710.94;5091545;28;20020;-85
2023/03/12 09:36:14;;;;;;;19.08;8.90;;;;;;;5.03;100.00;100721.28;5091615;28;20031;-84
2023/03/12 09:38:40;;;;;;;19.83;9.63;;;;;;;5.17;100.00;100738.50;5091188;28;20032;-85
2023/03/12 09:41:19;;;;;;;19.10;9.63;;;;;;;5.22;100.00;100718.81;5091033;28;20138;-82
2023/03/12 09:43:51;;;;;;;19.48;9.98;;;;;;;5.35;100.00;100718.00;5091174;28;20084;-82
2023/03/12 09:46:35;;;;;;;21.27;11.18;;;;;;;5.46;100.00;100722.34;5071532;28;20021;-82
2023/03/12 09:49:08;;;;;;;20.23;11.20;;;;;;;5.53;100.00;100722.38;5072503;28;20111;-82
2023/03/12 09:51:39;;;;;;;21.55;12.32;;;;;;;5.64;100.00;100735.25;5076256;28;20020;-82
2023/03/12 09:54:14;;;;;;;21.38;12.40;;;;;;;5.73;100.00;100744.75;5075989;28;20024;-82
2023/03/12 09:56:40;;;;;;;20.98;12.40;;;;;;;5.80;100.00;100745.63;5075570;28;20051;-83
2023/03/12 09:59:11;;;;;;;22.63;13.67;;;;;;;5.86;100.00;100743.03;5075708;28;20492;-82
2023/03/12 10:01:42;;;;;;;20.50;11.98;;;;;;;5.92;100.00;100748.22;5075409;28;20126;-83
2023/03/12 10:04:20;;;;;;;19.67;10.95;;;;;;;6.00;100.00;100758.59;5076155;28;20044;-82
2023/03/12 10:07:14;;;;;;;22.25;12.25;;;;;;;6.04;100.00;100755.16;5075985;28;20021;-82
2023/03/12 10:10:25;;;;;;;19.70;11.02;;;;;;;6.13;100.00;100751.72;5075211;28;20066;-82
2023/03/12 10:13:14;;;;;;;19.88;11.27;;;;;;;6.21;100.00;100749.16;5074257;28;20043;-82
2023/03/12 10:15:48;;;;;;;20.23;10.35;;;;;;;6.29;100.00;100753.50;5095475;28;20077;-82
2023/03/12 10:18:22;;;;;;;20.42;10.98;;;;;;;6.41;100.00;100750.03;5096206;28;20089;-83
2023/03/12 10:21:11;;;;;;;19.60;10.65;;;;;;;6.56;100.00;100756.91;5095790;28;20024;-82
2023/03/12 10:24:10;;;;;;;19.85;10.90;;;;;;;6.71;100.00;100747.47;5066427;28;20403;-83
2023/03/12 10:26:53;;;;;;;19.33;10.77;;;;;;;6.79;100.00;100744.03;5095835;28;20020;-82
2023/03/12 10:29:29;;;;;;;19.23;10.23;;;;;;;6.85;100.00;100750.91;5096006;28;20032;-82
2023/03/12 10:32:11;;;;;;;20.10;10.82;;;;;;;6.86;100.00;100747.47;5095656;28;20028;-82
2023/03/12 10:34:47;;;;;;;20.73;11.13;;;;;;;6.92;100.00;100759.50;5095948;28;20115;-82
2023/03/12 10:37:20;;;;;;;19.77;10.43;;;;;;;6.92;100.00;100751.75;5095114;28;20028;-82
2023/03/12 10:39:45;;;;;;;20.35;10.85;;;;;;;7.03;100.00;100754.28;5095704;28;20030;-82
2023/03/12 10:42:14;;;;;;;20.83;11.30;;;;;;;7.05;100.00;100744.84;5095678;28;20103;-83
2023/03/12 10:44:40;;;;;;;18.88;9.70;;;;;;;7.14;100.00;100743.97;5094898;28;20046;-82
2023/03/12 10:47:13;;;;;;;22.00;11.63;;;;;;;7.28;100.00;100746.50;5095387;28;20479;-82
2023/03/12 10:49:38;;;;;;;20.35;10.98;;;;;;;7.35;100.00;100743.00;5095433;28;20111;-82
2023/03/12 10:52:15;;;;;;;21.03;10.33;;;;;;;7.42;100.00;100747.31;5094587;28;20099;-83
2023/03/12 10:54:43;;;;;;;22.25;11.90;;;;;;;7.48;100.00;100742.09;5095447;28;20020;-82
2023/03/12 10:57:10;;;;;;;23.08;11.15;;;;;;;7.54;100.00;100739.47;5095051;28;20090;-82
2023/03/12 10:59:38;;;;;;;20.33;10.82;;;;;;;7.61;100.00;100739.47;5093920;28;20059;-83
2023/03/12 11:02:29;;;;;;;21.40;10.60;;;;;;;7.72;100.00;100746.28;5094603;28;20056;-82
2023/03/12 11:04:54;;;;;;;21.95;10.63;;;;;;;7.79;100.00;100748.84;5094398;28;20331;-82
2023/03/12 11:07:30;;;;;;;22.20;10.83;;;;;;;7.79;100.00;100747.13;5095529;28;20111;-83
2023/03/12 11:10:13;;;;;;;19.27;9.80;;;;;;;7.77;100.00;100748.84;5094939;28;20032;-83
2023/03/12 11:12:51;;;;;;;17.63;8.90;;;;;;;7.83;100.00;100747.97;5094275;28;20107;-83
2023/03/12 11:15:37;;;;;;;20.25;10.07;;;;;;;7.94;100.00;100756.50;5095210;28;20153;-82
2023/03/12 11:18:24;;;;;;;;;;;;;;;8.03;100.00;100760.78;5095076;28;20077;-82
2023/03/12 11:20:55;;;;;;;20.13;9.82;;;;;;;8.06;100.00;100758.19;5093845;28;19912;-82
2023/03/12 11:23:29;;;;;;;16.88;8.60;;;;;;;8.14;100.00;100766.72;5095166;28;20024;-82
2023/03/12 11:26:02;;;;;;;21.17;9.80;;;;;;;8.14;100.00;100765.88;5093945;28;20031;-83
2023/03/12 11:28:50;;;;;;;21.52;9.80;;;;;;;8.13;100.00;100764.16;5094847;28;20028;-82
2023/03/12 11:31:23;;;;;;;19.15;8.77;;;;;;;8.15;100.00;100762.44;5094802;28;20020;-83
2023/03/12 11:33:58;;;;;;;17.88;8.38;;;;;;;8.22;100.00;100764.09;5093693;28;20028;-83